Time;durP1;ratioP1;P1;durP2;ratioP2;P2;SDS_P1;SDS_P2;PMS_P1;PMS_P2;Temp;Humidity;BMP_temperature;BMP_pressure;BME280_temperature;BME280_humidity;BME280_pressure;Samples;Min_cycle;Max_cycle;Signal;HPM_P1;HPM_P2
2022/12/26 00:02:22;;;;;;;17.08;15.48;;;;;;;;;;5301433;28;20031;-71
2022/12/26 00:04:53;;;;;;;16.98;15.18;;;;;;;;;;5300910;28;20024;-70
2022/12/26 00:07:24;;;;;;;16.23;14.60;;;;;;;;;;5302255;28;20032;-70
2022/12/26 00:09:55;;;;;;;17.02;15.32;;;;;;;;;;5303306;28;20020;-69
2022/12/26 00:12:26;;;;;;;18.08;16.17;;;;;;;;;;5302498;28;20054;-70
2022/12/26 00:14:58;;;;;;;16.38;14.80;;;;;;;;;;5303318;28;20050;-70
2022/12/26 00:17:29;;;;;;;18.08;16.30;;;;;;;;;;5303183;28;20032;-70
2022/12/26 00:20:00;;;;;;;18.00;16.20;;;;;;;;;;5302454;28;20059;-70
2022/12/26 00:22:31;;;;;;;19.08;17.23;;;;;;;;;;5303058;28;20031;-70
2022/12/26 00:25:02;;;;;;;18.20;16.40;;;;;;;;;;5303164;28;20012;-70
2022/12/26 00:27:34;;;;;;;18.25;16.42;;;;;;;;;;5302706;28;20258;-70
2022/12/26 00:30:05;;;;;;;19.10;17.20;;;;;;;;;;5302882;28;20020;-69
2022/12/26 00:32:36;;;;;;;18.40;16.60;;;;;;;;;;5302577;28;20073;-70
2022/12/26 00:35:08;;;;;;;20.70;18.70;;;;;;;;;;5302927;28;20066;-70
2022/12/26 00:37:39;;;;;;;20.65;18.55;;;;;;;;;;5302247;28;20024;-70
2022/12/26 00:40:10;;;;;;;19.90;17.98;;;;;;;;;;5302318;28;20012;-70
2022/12/26 00:42:41;;;;;;;19.40;17.45;;;;;;;;;;5302629;28;20062;-69
2022/12/26 00:45:12;;;;;;;19.30;17.40;;;;;;;;;;5303215;28;20024;-70
2022/12/26 00:47:44;;;;;;;20.02;18.13;;;;;;;;;;5301557;28;20043;-70
2022/12/26 00:50:15;;;;;;;19.73;17.83;;;;;;;;;;5303157;28;20497;-70
2022/12/26 00:52:46;;;;;;;19.85;17.95;;;;;;;;;;5302136;28;20471;-70
2022/12/26 00:55:17;;;;;;;21.10;18.88;;;;;;;;;;5302344;28;20031;-69
2022/12/26 00:57:48;;;;;;;20.05;17.95;;;;;;;;;;5302272;28;20108;-70
2022/12/26 01:00:19;;;;;;;18.85;16.95;;;;;;;;;;5302692;28;20028;-69
2022/12/26 01:02:51;;;;;;;19.48;17.52;;;;;;;;;;5301283;28;20067;-69
2022/12/26 01:05:22;;;;;;;18.45;16.63;;;;;;;;;;5302415;28;20517;-69
2022/12/26 01:07:54;;;;;;;19.52;17.55;;;;;;;;;;5301354;28;20023;-70
2022/12/26 01:10:25;;;;;;;18.25;16.55;;;;;;;;;;5302186;28;20426;-69
2022/12/26 01:12:56;;;;;;;20.65;18.52;;;;;;;;;;5302436;28;20162;-69
2022/12/26 01:15:27;;;;;;;20.70;18.70;;;;;;;;;;5301487;28;20031;-69
2022/12/26 01:17:59;;;;;;;22.35;20.08;;;;;;;;;;5302149;28;20016;-69
2022/12/26 01:20:30;;;;;;;22.25;19.95;;;;;;;;;;5302284;28;20012;-69
2022/12/26 01:23:01;;;;;;;22.17;19.90;;;;;;;;;;5301796;28;20031;-69
2022/12/26 01:25:32;;;;;;;20.98;18.85;;;;;;;;;;5302338;28;20039;-70
2022/12/26 01:28:04;;;;;;;25.20;22.65;;;;;;;;;;5302072;28;20455;-70
2022/12/26 01:30:36;;;;;;;23.20;20.80;;;;;;;;;;5301498;28;20379;-70
2022/12/26 01:33:07;;;;;;;21.35;19.25;;;;;;;;;;5302463;28;20012;-70
2022/12/26 01:35:38;;;;;;;21.00;18.83;;;;;;;;;;5302109;28;20099;-70
2022/12/26 01:38:09;;;;;;;20.38;18.38;;;;;;;;;;5301590;28;20528;-70
2022/12/26 01:40:43;;;;;;;20.00;18.08;;;;;;;;;;5301654;28;20112;-70
2022/12/26 01:43:15;;;;;;;19.05;17.15;;;;;;;;;;5301712;28;20027;-69
2022/12/26 01:45:49;;;;;;;18.77;16.98;;;;;;;;;;5301596;28;20044;-70
2022/12/26 01:48:23;;;;;;;18.98;17.10;;;;;;;;;;5303867;28;20459;-70
2022/12/26 01:50:54;;;;;;;17.58;15.88;;;;;;;;;;5305327;28;20012;-69
2022/12/26 01:53:28;;;;;;;15.75;14.38;;;;;;;;;;5305912;28;20039;-70
2022/12/26 01:56:05;;;;;;;16.35;14.77;;;;;;;;;;5306238;28;20629;-70
2022/12/26 01:58:41;;;;;;;15.85;14.25;;;;;;;;;;5305465;28;20035;-70
2022/12/26 02:01:12;;;;;;;15.60;14.20;;;;;;;;;;5306233;28;20415;-70
2022/12/26 02:06:36;;;;;;;14.50;13.20;;;;;;;;;;5306006;28;20028;-70
2022/12/26 02:09:07;;;;;;;13.82;12.52;;;;;;;;;;5305939;28;20432;-69
2022/12/26 02:11:43;;;;;;;13.85;12.55;;;;;;;;;;5304810;28;20194;-69
2022/12/26 02:14:14;;;;;;;13.18;11.93;;;;;;;;;;5306166;28;20093;-70
2022/12/26 02:16:46;;;;;;;13.80;12.50;;;;;;;;;;5305400;28;20459;-70
2022/12/26 02:19:33;;;;;;;13.27;11.98;;;;;;;;;;5305077;28;20020;-70
2022/12/26 02:22:10;;;;;;;12.40;11.20;;;;;;;;;;5305402;28;20024;-70
2022/12/26 02:24:56;;;;;;;12.02;10.93;;;;;;;;;;5305003;28;20020;-70
2022/12/26 02:27:46;;;;;;;10.20;9.35;;;;;;;;;;5304629;28;20379;-71
2022/12/26 02:30:27;;;;;;;10.95;9.95;;;;;;;;;;5305664;28;20475;-70
2022/12/26 02:33:09;;;;;;;11.20;10.10;;;;;;;;;;5304375;28;20437;-69
2022/12/26 02:35:40;;;;;;;11.15;10.15;;;;;;;;;;5304904;28;20023;-69
2022/12/26 02:38:28;;;;;;;11.00;10.02;;;;;;;;;;5305164;28;20403;-68
2022/12/26 02:41:09;;;;;;;11.10;10.10;;;;;;;;;;5304442;28;20027;-70
2022/12/26 02:43:53;;;;;;;10.88;9.82;;;;;;;;;;5304799;28;20024;-70
2022/12/26 02:49:25;;;;;;;9.77;8.98;;;;;;;;;;5304799;28;20408;-70
2022/12/26 03:15:09;;;;;;;7.28;6.47;;;;;;;;;;5304107;28;20028;-70
2022/12/26 03:17:40;;;;;;;7.68;6.95;;;;;;;;;;5304341;28;20107;-70
2022/12/26 03:20:14;;;;;;;6.54;6.04;;;;;;;;;;5304795;28;20588;-70
2022/12/26 03:22:51;;;;;;;6.00;5.50;;;;;;;;;;5303129;28;20050;-70
2022/12/26 03:28:16;;;;;;;5.85;5.35;;;;;;;;;;5304662;28;20025;-70
2022/12/26 03:30:48;;;;;;;6.43;5.93;;;;;;;;;;5303182;28;20020;-69
2022/12/26 03:36:14;;;;;;;6.18;5.57;;;;;;;;;;5303608;28;20028;-70
2022/12/26 03:38:54;;;;;;;5.88;5.15;;;;;;;;;;5303396;28;20051;-71
2022/12/26 04:19:26;;;;;;;4.95;4.55;;;;;;;;;;5302701;28;20024;-70
2022/12/26 04:45:15;;;;;;;4.25;3.85;;;;;;;;;;5303587;28;20553;-70
2022/12/26 04:50:49;;;;;;;5.28;4.25;;;;;;;;;;5302784;28;20063;-71
2022/12/26 04:53:20;;;;;;;5.28;4.60;;;;;;;;;;5301762;28;20027;-70
2022/12/26 04:55:52;;;;;;;6.05;5.55;;;;;;;;;;5302849;28;20008;-70
2022/12/26 04:58:25;;;;;;;5.38;4.97;;;;;;;;;;5302674;28;20040;-69
2022/12/26 05:09:33;;;;;;;5.38;4.97;;;;;;;;;;5301669;28;20028;-70
2022/12/26 05:09:35;;;;;;;7.13;5.65;;;;;;;;;;5270817;28;20130;-70
2022/12/26 05:12:07;;;;;;;5.22;4.72;;;;;;;;;;5302832;28;20393;-70
2022/12/26 05:14:38;;;;;;;4.55;4.15;;;;;;;;;;5301881;28;20024;-70
2022/12/26 05:28:41;;;;;;;5.13;4.63;;;;;;;;;;5306284;28;20099;-70
2022/12/26 05:31:13;;;;;;;4.85;4.45;;;;;;;;;;5306952;28;20051;-70
2022/12/26 05:36:36;;;;;;;5.00;4.30;;;;;;;;;;5306152;28;20475;-71
2022/12/26 05:39:08;;;;;;;4.75;4.35;;;;;;;;;;5306652;28;20024;-70
2022/12/26 05:41:39;;;;;;;4.25;3.88;;;;;;;;;;5306220;28;20666;-70
2022/12/26 05:44:10;;;;;;;5.20;4.65;;;;;;;;;;5306070;28;20390;-70
2022/12/26 05:46:42;;;;;;;4.40;4.00;;;;;;;;;;5305619;28;20119;-70
2022/12/26 05:49:13;;;;;;;4.55;4.13;;;;;;;;;;5305782;28;20078;-71
2022/12/26 05:51:44;;;;;;;3.65;3.25;;;;;;;;;;5305930;28;20028;-71
2022/12/26 05:54:15;;;;;;;3.90;3.60;;;;;;;;;;5306502;28;20100;-70
2022/12/26 05:56:46;;;;;;;4.22;3.78;;;;;;;;;;5304750;28;20024;-70
2022/12/26 05:59:17;;;;;;;4.35;3.95;;;;;;;;;;5306448;28;20040;-71
2022/12/26 06:01:48;;;;;;;4.50;4.10;;;;;;;;;;5305750;28;20036;-70
2022/12/26 06:04:20;;;;;;;4.88;3.25;;;;;;;;;;5305911;28;20452;-70
2022/12/26 06:06:55;;;;;;;3.60;3.25;;;;;;;;;;5305801;28;20039;-70
2022/12/26 06:09:26;;;;;;;3.70;3.25;;;;;;;;;;5305878;28;20043;-69
2022/12/26 06:11:57;;;;;;;3.45;2.95;;;;;;;;;;5305384;28;20402;-70
2022/12/26 06:14:28;;;;;;;3.20;2.90;;;;;;;;;;5306080;28;20022;-70
2022/12/26 06:16:59;;;;;;;3.65;2.70;;;;;;;;;;5306016;28;20016;-70
2022/12/26 06:19:30;;;;;;;3.53;2.95;;;;;;;;;;5305165;28;20020;-69
2022/12/26 06:22:02;;;;;;;3.05;2.30;;;;;;;;;;5305657;28;20035;-70
2022/12/26 06:24:33;;;;;;;3.47;2.90;;;;;;;;;;5305071;28;20024;-70
2022/12/26 06:27:04;;;;;;;3.65;2.75;;;;;;;;;;5305653;28;20027;-70
2022/12/26 06:29:35;;;;;;;3.63;2.40;;;;;;;;;;5305845;28;20475;-70
2022/12/26 06:32:06;;;;;;;3.65;2.70;;;;;;;;;;5304848;28;20028;-70
2022/12/26 06:34:37;;;;;;;2.63;2.30;;;;;;;;;;5305198;28;20425;-71
2022/12/26 06:37:09;;;;;;;3.15;2.13;;;;;;;;;;5305524;28;20047;-70
2022/12/26 06:39:40;;;;;;;3.08;2.22;;;;;;;;;;5304259;28;20031;-70
2022/12/26 06:42:11;;;;;;;3.72;2.17;;;;;;;;;;5305433;28;20502;-70
2022/12/26 06:44:42;;;;;;;2.50;1.70;;;;;;;;;;5304940;28;20360;-70
2022/12/26 06:47:13;;;;;;;3.85;1.60;;;;;;;;;;5304728;28;20048;-70
2022/12/26 06:49:45;;;;;;;2.92;1.60;;;;;;;;;;5304928;28;20120;-70
2022/12/26 06:52:16;;;;;;;4.15;2.08;;;;;;;;;;5305519;28;20061;-70
2022/12/26 06:54:47;;;;;;;3.65;1.80;;;;;;;;;;5304080;28;20043;-70
2022/12/26 06:57:18;;;;;;;2.15;1.60;;;;;;;;;;5305326;28;20027;-69
2022/12/26 06:59:49;;;;;;;1.92;1.40;;;;;;;;;;5304042;28;20111;-70
2022/12/26 07:02:20;;;;;;;2.72;1.70;;;;;;;;;;5304940;28;20028;-70
2022/12/26 07:04:52;;;;;;;2.47;1.42;;;;;;;;;;5305017;28;20039;-71
2022/12/26 07:07:23;;;;;;;4.10;1.40;;;;;;;;;;5303952;28;20020;-71
2022/12/26 07:09:55;;;;;;;3.10;1.52;;;;;;;;;;5305121;28;20028;-71
2022/12/26 07:12:26;;;;;;;1.80;1.33;;;;;;;;;;5304715;28;20402;-71
2022/12/26 07:14:57;;;;;;;4.18;1.02;;;;;;;;;;5304033;28;20518;-71
2022/12/26 07:17:28;;;;;;;4.38;1.30;;;;;;;;;;5304732;28;20043;-72
2022/12/26 07:19:59;;;;;;;3.30;1.20;;;;;;;;;;5304464;28;20024;-71
2022/12/26 07:22:30;;;;;;;1.85;1.10;;;;;;;;;;5303360;28;20034;-71
2022/12/26 07:25:02;;;;;;;3.35;1.27;;;;;;;;;;5304425;28;20023;-71
2022/12/26 07:27:33;;;;;;;3.88;1.35;;;;;;;;;;5303600;28;20116;-71
2022/12/26 07:30:05;;;;;;;2.35;0.93;;;;;;;;;;5304209;28;20012;-70
2022/12/26 07:32:36;;;;;;;4.82;1.10;;;;;;;;;;5304213;28;20409;-70
2022/12/26 07:35:07;;;;;;;3.10;0.88;;;;;;;;;;5303344;28;20103;-70
2022/12/26 07:37:38;;;;;;;3.40;0.95;;;;;;;;;;5303463;28;20137;-70
2022/12/26 07:40:10;;;;;;;3.03;1.00;;;;;;;;;;5304105;28;20498;-70
2022/12/26 07:42:41;;;;;;;2.47;1.00;;;;;;;;;;5302695;28;20081;-69
2022/12/26 07:45:12;;;;;;;3.65;1.00;;;;;;;;;;5303229;28;20106;-70
2022/12/26 07:47:43;;;;;;;2.38;0.88;;;;;;;;;;5303072;28;20028;-70
2022/12/26 07:50:15;;;;;;;2.30;1.00;;;;;;;;;;5303257;28;20034;-70
2022/12/26 07:52:46;;;;;;;3.85;1.05;;;;;;;;;;5303401;28;20027;-70
2022/12/26 07:55:17;;;;;;;3.76;0.90;;;;;;;;;;5304179;28;20099;-71
2022/12/26 07:57:50;;;;;;;3.25;0.90;;;;;;;;;;5302397;28;20024;-71
2022/12/26 08:00:21;;;;;;;3.80;0.93;;;;;;;;;;5303653;28;20012;-70
2022/12/26 08:02:52;;;;;;;2.42;1.00;;;;;;;;;;5302936;28;20141;-71
2022/12/26 08:05:23;;;;;;;2.80;0.90;;;;;;;;;;5303695;28;20008;-71
2022/12/26 08:07:54;;;;;;;2.28;1.00;;;;;;;;;;5303135;28;20024;-71
2022/12/26 08:10:26;;;;;;;3.00;0.80;;;;;;;;;;5302538;28;20016;-70
2022/12/26 08:12:57;;;;;;;3.40;0.90;;;;;;;;;;5303165;28;20089;-70
2022/12/26 08:15:28;;;;;;;1.60;0.66;;;;;;;;;;5303347;28;20467;-70
2022/12/26 08:17:59;;;;;;;2.05;0.80;;;;;;;;;;5302485;28;20447;-69
2022/12/26 08:20:30;;;;;;;3.92;0.85;;;;;;;;;;5303176;28;20095;-70
2022/12/26 08:23:02;;;;;;;3.17;0.98;;;;;;;;;;5303204;28;20085;-70
2022/12/26 08:25:33;;;;;;;2.95;0.80;;;;;;;;;;5302382;28;20099;-69
2022/12/26 08:28:05;;;;;;;2.50;0.68;;;;;;;;;;5303019;28;20024;-72
2022/12/26 08:30:38;;;;;;;2.63;0.70;;;;;;;;;;5303017;28;20024;-69
2022/12/26 08:33:10;;;;;;;5.63;0.80;;;;;;;;;;5302377;28;20084;-70
2022/12/26 08:35:41;;;;;;;1.92;0.90;;;;;;;;;;5302915;28;20429;-71
2022/12/26 08:38:12;;;;;;;2.22;0.90;;;;;;;;;;5302574;28;20083;-70
2022/12/26 08:40:43;;;;;;;4.25;1.10;;;;;;;;;;5302570;28;20111;-70
2022/12/26 08:43:14;;;;;;;2.92;0.65;;;;;;;;;;5302745;28;20097;-70
2022/12/26 08:45:45;;;;;;;3.45;0.77;;;;;;;;;;5301085;28;20051;-69
2022/12/26 08:48:17;;;;;;;2.53;0.70;;;;;;;;;;5301902;28;20036;-70
2022/12/26 08:50:48;;;;;;;3.20;0.60;;;;;;;;;;5302379;28;20066;-70
2022/12/26 08:53:19;;;;;;;2.03;0.60;;;;;;;;;;5302399;28;20023;-70
2022/12/26 08:55:51;;;;;;;2.45;0.73;;;;;;;;;;5302245;28;20020;-70
2022/12/26 08:58:22;;;;;;;4.68;0.73;;;;;;;;;;5302596;28;20020;-71
2022/12/26 09:00:54;;;;;;;2.22;0.50;;;;;;;;;;5301880;28;20471;-71
2022/12/26 09:03:25;;;;;;;2.00;0.55;;;;;;;;;;5302800;28;20070;-72
2022/12/26 09:05:58;;;;;;;2.97;0.50;;;;;;;;;;5302314;28;20020;-71
2022/12/26 09:08:29;;;;;;;3.72;0.52;;;;;;;;;;5302124;28;20017;-72
2022/12/26 09:11:02;;;;;;;1.50;0.40;;;;;;;;;;5302628;28;20371;-71
2022/12/26 09:13:34;;;;;;;2.38;0.50;;;;;;;;;;5301893;28;20041;-71
2022/12/26 09:16:07;;;;;;;2.15;0.30;;;;;;;;;;5302399;28;20045;-71
2022/12/26 09:18:38;;;;;;;2.42;0.35;;;;;;;;;;5302717;28;20039;-71
2022/12/26 09:21:10;;;;;;;3.65;0.50;;;;;;;;;;5301734;28;20379;-71
2022/12/26 09:23:42;;;;;;;1.77;0.30;;;;;;;;;;5301925;28;20008;-70
2022/12/26 09:26:15;;;;;;;1.63;0.20;;;;;;;;;;5301556;28;20024;-70
2022/12/26 09:28:46;;;;;;;2.17;0.30;;;;;;;;;;5301068;28;20111;-70
2022/12/26 09:31:19;;;;;;;5.10;0.50;;;;;;;;;;5302538;28;20131;-70
2022/12/26 09:33:52;;;;;;;2.00;0.30;;;;;;;;;;5302085;28;20020;-70
2022/12/26 09:36:25;;;;;;;3.03;0.38;;;;;;;;;;5301574;28;20373;-70
2022/12/26 09:38:56;;;;;;;2.33;0.30;;;;;;;;;;5302083;28;20387;-70
2022/12/26 09:41:38;;;;;;;4.03;0.57;;;;;;;;;;5301270;28;20446;-70
2022/12/26 09:44:35;;;;;;;2.75;0.30;;;;;;;;;;5302285;28;20027;-70
2022/12/26 09:47:25;;;;;;;2.10;0.40;;;;;;;;;;5301913;28;20052;-70
2022/12/26 09:50:11;;;;;;;2.92;0.30;;;;;;;;;;5301204;28;20024;-70
2022/12/26 09:52:50;;;;;;;3.08;0.47;;;;;;;;;;5302031;28;20432;-71
2022/12/26 09:55:21;;;;;;;;;;;;;;;;;;5301861;28;20017;-71
2022/12/26 09:57:55;;;;;;;3.35;0.20;;;;;;;;;;5301849;28;19950;-71
2022/12/26 10:00:37;;;;;;;3.05;0.22;;;;;;;;;;5301776;28;20039;-70
2022/12/26 10:03:09;;;;;;;1.92;0.30;;;;;;;;;;5301244;28;20101;-71
2022/12/26 10:06:00;;;;;;;2.33;0.30;;;;;;;;;;5301960;28;20099;-71
2022/12/26 10:08:50;;;;;;;2.63;0.30;;;;;;;;;;5302236;28;20028;-71
2022/12/26 10:11:40;;;;;;;1.27;0.30;;;;;;;;;;5304662;28;20024;-71
2022/12/26 10:14:25;;;;;;;3.53;0.50;;;;;;;;;;5306043;28;20474;-70
2022/12/26 10:17:07;;;;;;;2.60;0.30;;;;;;;;;;5305044;28;20424;-71
2022/12/26 10:20:11;;;;;;;4.32;0.80;;;;;;;;;;5305776;28;20020;-71
2022/12/26 10:22:51;;;;;;;1.58;0.30;;;;;;;;;;5271077;28;20079;-71
2022/12/26 10:25:27;;;;;;;1.65;0.38;;;;;;;;;;5304924;28;20028;-71
2022/12/26 10:27:59;;;;;;;5.57;0.47;;;;;;;;;;5305524;28;20024;-71
2022/12/26 10:30:35;;;;;;;1.95;0.40;;;;;;;;;;5304999;28;20494;-70
2022/12/26 10:33:17;;;;;;;4.80;0.85;;;;;;;;;;5305651;28;20032;-70
2022/12/26 10:35:48;;;;;;;3.03;0.65;;;;;;;;;;5305156;28;20128;-70
2022/12/26 10:38:28;;;;;;;3.65;0.50;;;;;;;;;;5304756;28;20024;-71
2022/12/26 10:41:04;;;;;;;2.22;0.50;;;;;;;;;;5305405;28;20401;-71
2022/12/26 10:43:39;;;;;;;3.28;0.30;;;;;;;;;;5305520;28;20475;-71
2022/12/26 10:46:18;;;;;;;2.33;0.20;;;;;;;;;;5303818;28;20055;-71
2022/12/26 10:48:51;;;;;;;2.05;0.20;;;;;;;;;;5304218;28;20064;-71
2022/12/26 10:51:23;;;;;;;3.55;0.30;;;;;;;;;;5305366;28;20375;-71
2022/12/26 10:53:54;;;;;;;4.57;0.30;;;;;;;;;;5304219;28;20077;-71
2022/12/26 10:56:25;;;;;;;2.72;0.30;;;;;;;;;;5305028;28;20028;-72
2022/12/26 10:59:02;;;;;;;3.85;0.60;;;;;;;;;;5304112;28;20065;-71
2022/12/26 11:01:33;;;;;;;3.00;0.35;;;;;;;;;;5305004;28;20039;-71
2022/12/26 11:04:14;;;;;;;5.43;0.40;;;;;;;;;;5305061;28;20020;-71
2022/12/26 11:06:46;;;;;;;4.63;0.40;;;;;;;;;;5303756;28;20333;-71
2022/12/26 11:09:36;;;;;;;7.45;0.70;;;;;;;;;;5304634;28;20027;-71
2022/12/26 11:12:20;;;;;;;6.28;0.60;;;;;;;;;;5304753;28;20054;-71
2022/12/26 11:14:59;;;;;;;5.75;0.40;;;;;;;;;;5303833;28;20012;-71
2022/12/26 11:17:33;;;;;;;3.03;0.50;;;;;;;;;;5304669;28;20123;-71
2022/12/26 11:20:24;;;;;;;5.55;0.55;;;;;;;;;;5303140;28;20367;-71
2022/12/26 11:23:11;;;;;;;4.55;0.73;;;;;;;;;;5304629;28;20493;-71
2022/12/26 11:25:50;;;;;;;4.75;0.90;;;;;;;;;;5304227;28;20027;-69
2022/12/26 11:28:23;;;;;;;6.75;0.55;;;;;;;;;;5303854;28;20028;-72
2022/12/26 11:30:55;;;;;;;10.65;0.88;;;;;;;;;;5304672;28;20055;-71
2022/12/26 11:33:32;;;;;;;7.88;0.60;;;;;;;;;;5304449;28;20047;-71
2022/12/26 11:36:19;;;;;;;7.40;0.77;;;;;;;;;;5303704;28;20069;-73
2022/12/26 11:38:55;;;;;;;5.85;0.55;;;;;;;;;;5304249;28;20022;-72
2022/12/26 11:41:35;;;;;;;5.88;1.05;;;;;;;;;;5303345;28;20043;-71
2022/12/26 11:44:09;;;;;;;6.85;0.60;;;;;;;;;;5304240;28;20030;-73
2022/12/26 11:46:43;;;;;;;9.95;1.05;;;;;;;;;;5303673;28;20056;-74
2022/12/26 11:49:25;;;;;;;8.05;0.77;;;;;;;;;;5304216;28;20078;-74
2022/12/26 11:51:58;;;;;;;4.30;0.50;;;;;;;;;;5304119;28;20074;-73
2022/12/26 11:54:45;;;;;;;4.65;0.70;;;;;;;;;;5303721;28;20047;-73
2022/12/26 11:57:21;;;;;;;4.80;0.60;;;;;;;;;;5303505;28;20165;-73
2022/12/26 11:59:52;;;;;;;6.32;0.93;;;;;;;;;;5303956;28;20020;-73
2022/12/26 12:02:41;;;;;;;8.20;0.82;;;;;;;;;;5303037;28;20028;-73
2022/12/26 12:05:12;;;;;;;;;;;;;;;;;;5304407;28;20012;-74
2022/12/26 12:07:54;;;;;;;3.60;0.50;;;;;;;;;;5303170;28;19904;-74
2022/12/26 12:10:46;;;;;;;6.03;0.45;;;;;;;;;;5302973;28;20073;-73
2022/12/26 12:13:17;;;;;;;6.00;0.47;;;;;;;;;;5304046;28;20137;-73
2022/12/26 12:15:48;;;;;;;4.20;0.40;;;;;;;;;;5303414;28;20090;-74
2022/12/26 12:18:35;;;;;;;2.63;0.22;;;;;;;;;;5302941;28;20273;-75
2022/12/26 12:21:15;;;;;;;4.32;0.68;;;;;;;;;;5303376;28;20294;-75
2022/12/26 12:23:49;;;;;;;5.60;0.47;;;;;;;;;;5302543;28;20109;-74
2022/12/26 12:26:33;;;;;;;7.30;1.17;;;;;;;;;;5303460;28;20020;-74
2022/12/26 12:29:07;;;;;;;7.10;1.25;;;;;;;;;;5303624;28;20012;-74
2022/12/26 12:31:54;;;;;;;4.50;0.50;;;;;;;;;;5301926;28;20494;-75
2022/12/26 12:34:32;;;;;;;4.25;0.43;;;;;;;;;;5303282;28;20052;-75
2022/12/26 12:37:22;;;;;;;6.67;0.47;;;;;;;;;;5302273;28;20027;-73
2022/12/26 12:39:53;;;;;;;4.85;0.50;;;;;;;;;;5303226;28;20049;-74
2022/12/26 12:42:33;;;;;;;3.25;0.38;;;;;;;;;;5303134;28;20065;-74
2022/12/26 12:45:20;;;;;;;4.75;0.50;;;;;;;;;;5302319;28;20020;-74
2022/12/26 12:47:51;;;;;;;4.68;0.45;;;;;;;;;;5303445;28;20074;-74
2022/12/26 12:50:27;;;;;;;4.04;0.64;;;;;;;;;;5302838;28;20057;-74
2022/12/26 12:53:17;;;;;;;3.78;0.25;;;;;;;;;;5304445;28;20105;-75
2022/12/26 12:55:51;;;;;;;3.95;0.65;;;;;;;;;;5302342;28;20031;-74
2022/12/26 12:58:22;;;;;;;3.80;0.38;;;;;;;;;;5302120;28;20070;-74
2022/12/26 13:01:05;;;;;;;5.90;1.27;;;;;;;;;;5302914;28;20020;-73
2022/12/26 13:03:46;;;;;;;3.53;0.30;;;;;;;;;;5302555;28;20028;-74
2022/12/26 13:06:21;;;;;;;2.80;0.20;;;;;;;;;;5302223;28;20445;-73
2022/12/26 13:08:56;;;;;;;3.55;0.40;;;;;;;;;;5302709;28;20024;-75
2022/12/26 13:11:32;;;;;;;7.75;0.40;;;;;;;;;;5302739;28;20016;-71
2022/12/26 13:14:06;;;;;;;2.33;0.20;;;;;;;;;;5301742;28;20111;-71
2022/12/26 13:16:42;;;;;;;2.03;0.28;;;;;;;;;;5302922;28;20445;-71
2022/12/26 13:19:16;;;;;;;2.38;0.30;;;;;;;;;;5302308;28;20028;-71
2022/12/26 13:21:48;;;;;;;3.75;0.35;;;;;;;;;;5302046;28;20119;-71
2022/12/26 13:24:25;;;;;;;3.60;0.30;;;;;;;;;;5302477;28;20023;-71
2022/12/26 13:27:02;;;;;;;3.00;0.30;;;;;;;;;;5301834;28;20028;-71
2022/12/26 13:29:35;;;;;;;2.10;0.20;;;;;;;;;;5302760;28;20440;-71
2022/12/26 13:32:15;;;;;;;4.10;0.40;;;;;;;;;;5302513;28;20033;-71
2022/12/26 13:34:46;;;;;;;1.92;0.30;;;;;;;;;;5301448;28;20104;-71
2022/12/26 13:37:36;;;;;;;3.05;0.30;;;;;;;;;;5302388;28;20111;-71
2022/12/26 13:40:10;;;;;;;2.72;0.30;;;;;;;;;;5302491;28;20024;-70
2022/12/26 13:45:53;;;;;;;2.72;0.35;;;;;;;;;;5306577;28;20081;-70
2022/12/26 13:48:25;;;;;;;2.72;0.30;;;;;;;;;;5305841;28;20463;-71
2022/12/26 13:50:59;;;;;;;2.80;0.30;;;;;;;;;;5306396;28;20046;-71
2022/12/26 13:53:31;;;;;;;1.60;0.30;;;;;;;;;;5306308;28;20261;-72
2022/12/26 13:56:31;;;;;;;2.63;0.43;;;;;;;;;;5305423;28;20074;-71
2022/12/26 13:59:12;;;;;;;2.47;0.20;;;;;;;;;;5306139;28;20027;-71
2022/12/26 14:02:16;;;;;;;3.58;0.40;;;;;;;;;;5305141;28;20028;-71
2022/12/26 14:05:06;;;;;;;2.15;0.20;;;;;;;;;;5305859;28;20412;-71
2022/12/26 14:07:44;;;;;;;1.70;0.25;;;;;;;;;;5306201;28;20039;-71
2022/12/26 14:10:15;;;;;;;1.27;0.20;;;;;;;;;;5305651;28;20020;-71
2022/12/26 14:12:53;;;;;;;4.68;0.20;;;;;;;;;;5305435;28;20028;-71
2022/12/26 14:15:33;;;;;;;1.13;0.20;;;;;;;;;;5306049;28;20812;-71
2022/12/26 14:18:14;;;;;;;2.65;0.30;;;;;;;;;;5306038;28;20051;-71
2022/12/26 14:20:50;;;;;;;3.97;0.30;;;;;;;;;;5305401;28;20016;-71
2022/12/26 14:23:38;;;;;;;1.92;0.22;;;;;;;;;;5304953;28;20032;-71
2022/12/26 14:26:18;;;;;;;3.67;0.30;;;;;;;;;;5306131;28;20096;-71
2022/12/26 14:29:22;;;;;;;3.35;0.30;;;;;;;;;;5305049;28;20024;-72
2022/12/26 14:31:53;;;;;;;3.50;0.40;;;;;;;;;;5281285;28;20070;-71
2022/12/26 14:34:33;;;;;;;1.65;0.20;;;;;;;;;;5305649;28;20405;-72
2022/12/26 14:37:26;;;;;;;2.72;0.20;;;;;;;;;;5304822;28;20020;-71
2022/12/26 14:40:06;;;;;;;3.55;0.35;;;;;;;;;;5305271;28;20425;-70
2022/12/26 14:43:10;;;;;;;3.35;0.20;;;;;;;;;;5305497;28;20126;-71
2022/12/26 14:45:51;;;;;;;0.95;0.20;;;;;;;;;;5286747;28;20031;-72
2022/12/26 14:48:22;;;;;;;3.20;0.20;;;;;;;;;;5305451;28;20115;-71
2022/12/26 14:51:02;;;;;;;1.28;0.20;;;;;;;;;;5304828;28;20111;-71
2022/12/26 14:53:34;;;;;;;5.45;0.52;;;;;;;;;;5305302;28;20020;-72
2022/12/26 14:56:14;;;;;;;1.92;0.60;;;;;;;;;;5304978;28;20031;-71
2022/12/26 14:58:46;;;;;;;2.97;0.45;;;;;;;;;;5304255;28;20056;-72
2022/12/26 15:01:20;;;;;;;2.53;0.40;;;;;;;;;;5305109;28;20054;-71
2022/12/26 15:03:57;;;;;;;2.50;0.77;;;;;;;;;;5304964;28;20471;-71
2022/12/26 15:06:34;;;;;;;1.75;0.20;;;;;;;;;;5304371;28;20051;-71
2022/12/26 15:09:12;;;;;;;2.60;0.20;;;;;;;;;;5304863;28;20085;-71
2022/12/26 15:12:02;;;;;;;1.57;0.30;;;;;;;;;;5304059;28;20012;-71
2022/12/26 15:14:33;;;;;;;3.20;0.25;;;;;;;;;;5304733;28;20077;-71
2022/12/26 15:17:10;;;;;;;3.80;0.74;;;;;;;;;;5304736;28;20024;-70
2022/12/26 15:19:41;;;;;;;3.33;0.47;;;;;;;;;;5303592;28;20019;-70
2022/12/26 15:22:31;;;;;;;3.47;0.40;;;;;;;;;;5305131;28;20472;-71
2022/12/26 15:25:05;;;;;;;3.00;0.30;;;;;;;;;;5304627;28;20404;-70
2022/12/26 15:27:45;;;;;;;1.92;0.30;;;;;;;;;;5303686;28;20024;-70
2022/12/26 15:30:16;;;;;;;2.35;0.40;;;;;;;;;;5304814;28;20114;-71
2022/12/26 15:33:04;;;;;;;2.95;0.35;;;;;;;;;;5303855;28;20165;-71
2022/12/26 15:35:45;;;;;;;1.77;0.30;;;;;;;;;;5304324;28;20020;-71
2022/12/26 15:38:19;;;;;;;2.67;0.40;;;;;;;;;;5304403;28;20107;-70
2022/12/26 15:41:09;;;;;;;2.95;0.30;;;;;;;;;;5303302;28;20028;-71
2022/12/26 15:43:48;;;;;;;4.47;0.77;;;;;;;;;;5303708;28;20028;-70
2022/12/26 15:46:36;;;;;;;3.08;0.40;;;;;;;;;;5304044;28;20044;-71
2022/12/26 15:49:22;;;;;;;4.45;0.57;;;;;;;;;;5303300;28;20028;-71
2022/12/26 15:52:20;;;;;;;5.72;0.93;;;;;;;;;;5303901;28;20035;-70
2022/12/26 15:55:00;;;;;;;2.63;0.30;;;;;;;;;;5286594;28;20483;-71
2022/12/26 15:57:49;;;;;;;4.35;0.63;;;;;;;;;;5303705;28;20036;-70
2022/12/26 16:00:24;;;;;;;3.67;0.50;;;;;;;;;;5303583;28;20112;-71
2022/12/26 16:03:04;;;;;;;3.08;0.52;;;;;;;;;;5302534;28;20036;-70
2022/12/26 16:05:51;;;;;;;4.75;0.40;;;;;;;;;;5303570;28;20024;-71
2022/12/26 16:08:22;;;;;;;3.50;0.32;;;;;;;;;;5302679;28;20028;-71
2022/12/26 16:11:12;;;;;;;4.24;0.40;;;;;;;;;;5303337;28;20028;-71
2022/12/26 16:13:53;;;;;;;5.90;0.40;;;;;;;;;;5303214;28;20028;-71
2022/12/26 16:16:24;;;;;;;4.78;0.70;;;;;;;;;;5302970;28;20103;-71
2022/12/26 16:18:55;;;;;;;2.55;0.40;;;;;;;;;;5303484;28;20115;-71
2022/12/26 16:24:17;;;;;;;3.63;0.50;;;;;;;;;;5303097;28;20385;-71
2022/12/26 16:26:48;;;;;;;4.07;0.63;;;;;;;;;;5302819;28;20020;-71
2022/12/26 16:29:20;;;;;;;3.72;0.50;;;;;;;;;;5302752;28;20095;-70
2022/12/26 16:31:51;;;;;;;2.83;0.50;;;;;;;;;;5303056;28;20030;-71
2022/12/26 16:34:22;;;;;;;6.05;0.75;;;;;;;;;;5303031;28;20016;-71
2022/12/26 16:36:54;;;;;;;4.07;0.43;;;;;;;;;;5302736;28;20455;-71
2022/12/26 16:39:25;;;;;;;2.92;0.50;;;;;;;;;;5303667;28;20031;-71
2022/12/26 16:41:56;;;;;;;4.03;0.40;;;;;;;;;;5303060;28;20032;-71
2022/12/26 16:44:34;;;;;;;2.63;0.30;;;;;;;;;;5302464;28;20087;-71
2022/12/26 16:47:10;;;;;;;2.58;0.30;;;;;;;;;;5302911;28;20039;-71
2022/12/26 16:49:43;;;;;;;3.53;0.40;;;;;;;;;;5302805;28;20020;-71
2022/12/26 16:52:34;;;;;;;2.60;0.30;;;;;;;;;;5302844;28;20102;-71
2022/12/26 16:55:22;;;;;;;1.92;0.30;;;;;;;;;;5303009;28;20040;-70
2022/12/26 16:57:55;;;;;;;6.38;0.90;;;;;;;;;;5302223;28;20024;-71
2022/12/26 17:00:26;;;;;;;3.40;0.60;;;;;;;;;;5302856;28;20023;-71
2022/12/26 17:02:59;;;;;;;4.85;0.60;;;;;;;;;;5302650;28;20036;-72
2022/12/26 17:05:31;;;;;;;2.50;0.32;;;;;;;;;;5301869;28;20016;-71
2022/12/26 17:08:03;;;;;;;6.97;0.30;;;;;;;;;;5302801;28;20380;-72
2022/12/26 17:10:36;;;;;;;4.20;0.43;;;;;;;;;;5301232;28;20026;-71
2022/12/26 17:13:08;;;;;;;5.07;0.50;;;;;;;;;;5301833;28;20028;-72
2022/12/26 17:15:46;;;;;;;5.57;1.15;;;;;;;;;;5302257;28;20020;-72
2022/12/26 17:18:43;;;;;;;7.30;1.25;;;;;;;;;;5301430;28;20013;-71
2022/12/26 17:21:22;;;;;;;5.55;0.60;;;;;;;;;;5302902;28;20425;-71
2022/12/26 17:24:03;;;;;;;4.13;0.40;;;;;;;;;;5302377;28;20115;-71
2022/12/26 17:26:36;;;;;;;4.55;0.50;;;;;;;;;;5301832;28;20023;-71
2022/12/26 17:29:25;;;;;;;6.53;0.50;;;;;;;;;;5302618;28;20018;-71
2022/12/26 17:31:56;;;;;;;3.92;0.40;;;;;;;;;;5302350;28;20032;-71
2022/12/26 17:34:28;;;;;;;4.57;0.80;;;;;;;;;;5301342;28;20114;-72